Flight Track Log - Related Links

Times and Time Zones

All times are in EDT time to prevent confusion due to time zone crossing. See the GLO7710 flight status page for this flight to view local times or setup timezone preferences in your user account.

Time Position Orientation Groundspeed Altitude Reporting Facility
EDT Latitude Longitude Course Direction KTS MPH feet Rate Location/Type
Thu 06:50:00 PM 19.1310 -69.8380 354° North 363 418 22,300  Level FlightAware ADS-B
Thu 06:50:46 PM 19.2100 -69.8470 354° North 379 436 23,800 1,310 Climbing FlightAware ADS-B
Thu 06:51:27 PM 19.2840 -69.8540 355° North 414 476 24,200 1,200 Climbing FlightAware ADS-B
Thu 06:52:11 PM 19.3710 -69.8630 354° North 427 491 25,500 1,823 Climbing FlightAware ADS-B
Thu 06:52:46 PM 19.4420 -69.8710 354° North 435 501 26,600 1,086 Climbing FlightAware ADS-B
Thu 06:53:56 PM 19.5730 -69.8850 354° North 442 509 27,400 1,515 Climbing FlightAware ADS-B
Thu 06:54:29 PM 19.6490 -69.8990 350° North 459 528 29,200 2,174 Climbing FlightAware ADS-B
Thu 06:55:05 PM 19.7078 -69.9256 350° North 438 504 29,900 1,375 Climbing Miami Center
Thu 06:56:05 PM 19.7956 -70.0247 313° West 444 511 31,400 1,750 Climbing Miami Center
Thu 06:57:05 PM 19.8692 -70.1378 305° West 456 525 33,400 1,850 Climbing Miami Center
Thu 06:58:05 PM 19.9386 -70.2556 302° West 461 531 35,100 1,600 Climbing Miami Center
Thu 06:59:05 PM 20.0081 -70.3692 303° West 461 531 36,600 1,450 Climbing Miami Center
Thu 07:00:05 PM 20.0792 -70.4825 304° West 466 536 38,000 1,400 Climbing Miami Center
Thu 07:01:05 PM 20.1483 -70.5942 303° West 461 531 39,400 1,000 Climbing Miami Center
Thu 07:02:05 PM 20.2153 -70.7058 303° West 461 531 40,000 300 Climbing Miami Center
Thu 07:03:05 PM 20.2842 -70.8133 304° West 456 525 40,000  Level Miami Center
Thu 07:04:05 PM 20.3531 -70.9272 303° West 456 525 40,000  Level Miami Center
Thu 07:05:05 PM 20.4219 -71.0394 303° West 456 525 40,000  Level Miami Center
Thu 07:06:05 PM 20.4928 -71.1514 304° West 456 525 40,000  Level Miami Center
Thu 07:07:05 PM 20.5617 -71.2658 303° West 456 525 40,000  Level Miami Center
Thu 07:08:05 PM 20.6344 -71.3825 304° West 461 531 40,000  Level Miami Center
Thu 07:09:05 PM 20.7033 -71.4992 302° West 467 537 40,000  Level Miami Center
Thu 07:10:05 PM 20.7761 -71.6139 304° West 467 537 40,000  Level Miami Center
Thu 07:11:05 PM 20.8444 -71.7267 303° West 467 537 40,000  Level Miami Center
Thu 07:12:05 PM 20.9150 -71.8439 303° West 467 537 40,000  Level Miami Center
Thu 07:13:05 PM 20.9856 -71.9589 303° West 467 537 40,000  Level Miami Center
Thu 07:14:05 PM 21.0622 -72.0828 304° West 467 537 40,000  Level Miami Center
Thu 07:15:05 PM 21.1328 -72.2006 303° West 467 537 40,000  Level Miami Center
Thu 07:16:05 PM 21.2028 -72.3114 304° West 460 529 40,000  Level Miami Center
Thu 07:17:05 PM 21.2708 -72.4228 303° West 455 524 40,000  Level Miami Center
Thu 07:18:05 PM 21.3367 -72.5364 302° West 455 524 40,000  Level Miami Center
Thu 07:19:05 PM 21.4044 -72.6478 303° West 449 517 40,000  Level Miami Center
Thu 07:20:05 PM 21.4700 -72.7594 302° West 449 517 40,000  Level Miami Center
Thu 07:21:05 PM 21.5375 -72.8711 303° West 449 517 40,000  Level Miami Center
Thu 07:22:05 PM 21.6050 -72.9786 304° West 444 511 40,000  Level Miami Center
Thu 07:23:05 PM 21.6683 -73.0906 301° West 444 511 40,000  Level Miami Center
Thu 07:24:05 PM 21.7378 -73.2003 304° West 444 511 40,000  Level Miami Center
Thu 07:25:05 PM 21.7989 -73.3103 301° West 444 511 40,000  Level Miami Center
Thu 07:26:05 PM 21.8661 -73.4228 303° West 444 511 40,000  Level Miami Center
Thu 07:27:05 PM 21.9333 -73.5328 303° West 444 511 40,000  Level Miami Center
Thu 07:28:05 PM 21.9964 -73.6453 301° West 439 505 40,000  Level Miami Center
Thu 07:29:05 PM 22.0653 -73.7489 306° West 435 501 40,000  Level Miami Center
Thu 07:30:05 PM 22.1303 -73.8594 302° West 435 501 40,000  Level Miami Center
Thu 07:31:05 PM 22.1950 -73.9681 303° West 430 495 40,000  Level Miami Center
Thu 07:32:05 PM 22.2575 -74.0789 301° West 430 495 40,000  Level Miami Center
Thu 07:33:05 PM 22.3222 -74.1875 303° West 430 495 40,000  Level Miami Center
Thu 07:34:05 PM 22.3847 -74.2961 302° West 424 488 40,000  Level Miami Center
Thu 07:35:05 PM 22.4492 -74.4006 304° West 424 488 40,000  Level Miami Center
Thu 07:36:05 PM 22.5092 -74.5072 301° West 424 488 40,000  Level Miami Center
Thu 07:37:05 PM 22.5736 -74.6164 303° West 424 488 40,000  Level Miami Center
Thu 07:38:05 PM 22.6336 -74.7256 301° West 424 488 40,000  Level Miami Center
Thu 07:39:05 PM 22.6978 -74.8325 303° West 424 488 40,000  Level Miami Center
Thu 07:40:05 PM 22.7619 -74.9442 302° West 424 488 40,000  Level Miami Center
Thu 07:41:05 PM 22.8239 -75.0536 302° West 424 488 40,000  Level Miami Center
Thu 07:42:05 PM 22.8878 -75.1633 302° West 424 488 40,000  Level Miami Center
Thu 07:43:05 PM 22.9539 -75.2753 303° West 424 488 40,000  Level Miami Center
Thu 07:44:05 PM 23.0156 -75.3872 301° West 424 488 40,000  Level Miami Center
Thu 07:45:05 PM 23.0772 -75.4972 301° West 424 488 40,000  Level Miami Center
Thu 07:46:05 PM 23.1428 -75.6072 303° West 424 488 40,000  Level Miami Center
Thu 07:47:05 PM 23.2044 -75.7197 301° West 424 488 40,000  Level Miami Center
Thu 07:48:05 PM 23.2553 -75.8097 302° West 424 488 40,000  Level Miami Center
Thu 07:49:05 PM 23.3228 -75.9358 300° West 435 501 40,000  Level Miami Center
Thu 07:50:05 PM 23.3925 -76.0461 305° West 441 507 40,000  Level Miami Center
Thu 07:51:05 PM 23.4578 -76.1567 303° West 441 507 40,000  Level Miami Center
Thu 07:52:05 PM 23.5189 -76.2631 302° West 435 501 40,000  Level Miami Center
Thu 07:53:05 PM 23.5819 -76.3761 301° West 435 501 40,000  Level Miami Center
Thu 07:54:05 PM 23.6450 -76.4822 303° West 429 494 40,000  Level Miami Center
Thu 07:55:05 PM 23.7081 -76.5956 301° West 429 494 40,000  Level Miami Center
Thu 07:56:05 PM 23.7708 -76.7067 302° West 424 488 40,000  Level Miami Center
Thu 07:57:05 PM 23.8336 -76.8181 302° West 424 488 40,000  Level Miami Center
Thu 07:58:05 PM 23.8942 -76.9225 302° West 424 488 40,000  Level Miami Center
Thu 07:59:05 PM 23.9569 -77.0339 302° West 424 488 40,000  Level Miami Center
Thu 08:00:05 PM 24.0194 -77.1478 301° West 424 488 40,000  Level Miami Center
Thu 08:01:05 PM 24.0817 -77.2594 301° West 424 488 40,000  Level Miami Center
Thu 08:02:05 PM 24.1419 -77.3736 300° West 424 488 40,000  Level Miami Center
Thu 08:03:05 PM 24.1708 -77.4967 284° West 424 488 40,000  Level Miami Center
Thu 08:04:05 PM 24.1953 -77.6381 281° West 424 488 40,000  Level Miami Center
Thu 08:05:05 PM 24.2175 -77.7658 281° West 429 494 40,000  Level Miami Center
Thu 08:06:05 PM 24.2375 -77.8981 279° West 434 499 40,000  Level Miami Center
Thu 08:07:05 PM 24.2575 -78.0281 280° West 434 499 40,000  Level Miami Center
Thu 08:08:05 PM 24.2794 -78.1583 280° West 439 505 40,000  Level Miami Center
Thu 08:09:05 PM 24.2992 -78.2883 279° West 439 505 40,000  Level Miami Center
Thu 08:10:05 PM 24.3186 -78.4186 279° West 439 505 40,000  Level Miami Center
Thu 08:11:05 PM 24.3403 -78.5511 280° West 439 505 40,000 -300 Level Miami Center
Thu 08:12:05 PM 24.3597 -78.6792 279° West 445 512 39,400 -800 Descending Miami Center
Thu 08:13:05 PM 24.3789 -78.8164 279° West 445 512 38,400 -950 Descending Miami Center
Thu 08:14:05 PM 24.4000 -78.9536 280° West 445 512 37,500 -950 Descending Miami Center
Thu 08:15:05 PM 24.4208 -79.0886 280° West 450 518 36,500 -900 Descending Miami Center
Thu 08:16:05 PM 24.4361 -79.2006 279° West 456 525 35,700 -950 Descending Miami Center
Thu 08:17:05 PM 24.4669 -79.3472 283° West 456 525 34,600 -2,556 Descending Miami Center
Thu 08:22:44 PM 25.0550 -79.6560 283° West 415 478 18,700 -2,734 Descending FlightAware ADS-B
Thu 08:23:29 PM 25.1370 -79.6730 349° North 403 464 17,100 -2,308 Descending FlightAware ADS-B
Thu 08:24:15 PM 25.2190 -79.6910 349° North 390 449 15,200 -2,483 Descending FlightAware ADS-B
Thu 08:24:56 PM 25.2930 -79.7080 348° North 385 443 13,500 -1,174 Descending FlightAware ADS-B
Thu 08:25:47 PM 25.3670 -79.7250 348° North 376 433 13,400 -69 Descending FlightAware ADS-B
Thu 08:26:23 PM 25.4190 -79.7370 348° North 376 433 13,400 -1,669 Level FlightAware ADS-B
Thu 08:28:05 PM 25.5010 -79.9130 297° West 9,400 -2,191 Descending FlightAware ADS-B
Thu 08:28:18 PM 25.5120 -79.9280 309° West 287 330 9,200 -1,050 Descending FlightAware ADS-B
Thu 08:28:45 PM 25.5340 -79.9590 308° West 283 326 8,700 -1,071 Descending FlightAware ADS-B
Thu 08:29:14 PM 25.5580 -79.9930 308° West 284 327 8,200 -964 Descending FlightAware ADS-B
Thu 08:29:41 PM 25.5790 -80.0220 309° West 283 326 7,800 -436 Descending FlightAware ADS-B
Thu 08:30:09 PM 25.6030 -80.0550 309° West 281 323 7,800  Level FlightAware ADS-B
Thu 08:30:21 PM 25.6120 -80.0680 308° West 279 321 7,800  Level FlightAware ADS-B
Thu 08:30:46 PM 25.6320 -80.0960 308° West 264 304 7,800  Level FlightAware ADS-B
Thu 08:31:12 PM 25.6510 -80.1230 308° West 253 291 7,800  Level FlightAware ADS-B
Thu 08:31:44 PM 25.6680 -80.1590 298° West 244 281 7,800 -305 Level FlightAware ADS-B
Thu 08:32:11 PM 25.6760 -80.1910 286° West 243 280 7,500 -894 Descending FlightAware ADS-B
Thu 08:32:31 PM 25.6820 -80.2140 286° West 244 281 7,100 -1,125 Descending FlightAware ADS-B
Thu 08:32:59 PM 25.6910 -80.2480 286° West 243 280 6,600 -1,071 Descending FlightAware ADS-B
Thu 08:33:27 PM 25.7000 -80.2810 287° West 242 278 6,100 -1,024 Descending FlightAware ADS-B
Thu 08:33:40 PM 25.7040 -80.2980 285° West 243 280 5,900 -439 Descending FlightAware ADS-B
Thu 08:34:08 PM 25.7100 -80.3310 281° West 240 276 5,800 -115 Descending FlightAware ADS-B
Thu 08:34:32 PM 25.7090 -80.3600 268° West 238 274 5,800 -226 Level FlightAware ADS-B
Thu 08:35:01 PM 25.7070 -80.3940 266° West 240 276 5,600 -712 Descending FlightAware ADS-B
Thu 08:35:31 PM 25.7050 -80.4330 267° West 242 278 5,100 -1,116 Descending FlightAware ADS-B
Thu 08:35:44 PM 25.7040 -80.4490 266° West 240 276 4,800 -407 Descending FlightAware ADS-B
Thu 08:36:30 PM 25.7020 -80.4980 267° West 232 267 4,700 -716 Descending FlightAware ADS-B
Thu 08:37:33 PM 25.7500 -80.5230 335° Northwest 192 221 3,500 -1,040 Descending FlightAware ADS-B
Thu 08:37:45 PM 25.7570 -80.5130 52° Northeast 187 215 3,400 -769 Descending FlightAware ADS-B
Thu 08:38:12 PM 25.7710 -80.4950 49° Northeast 182 209 3,000 -818 Descending FlightAware ADS-B
Thu 08:38:29 PM 25.7790 -80.4800 59° Northeast 177 204 2,800 -720 Descending FlightAware ADS-B
Thu 08:38:37 PM 25.7790 -80.4740 90° East 176 203 2,700 -1,050 Descending FlightAware ADS-B
Thu 08:39:09 PM 25.7810 -80.4430 86° East 178 205 2,100 -982 Descending FlightAware ADS-B
Thu 08:39:32 PM 25.7810 -80.4240 90° East 172 198 1,800 -824 Descending FlightAware ADS-B
Thu 08:40:00 PM 25.7830 -80.4000 85° East 161 185 1,400 -857 Descending FlightAware ADS-B
Thu 08:40:28 PM 25.7830 -80.3790 90° East 140 161 1,000 -444 Descending FlightAware ADS-B
Thu 08:40:54 PM 25.7840 -80.3630 86° East 140 161 1,000  Level FlightAware ADS-B
Thu 08:42:48 PM 25.7870 -80.2940 87° East 39 45 -526 Descending FlightAware ADS-B
Thu 08:43:00 PM 25.7870 -80.2920 90° East 30 35  Level FlightAware ADS-B
Thu 08:43:30 PM 25.7880 -80.2900 61° Northeast 32 37  Level FlightAware ADS-B
Thu 08:43:42 PM 25.7880 -80.2890 90° East 30 35  Level FlightAware ADS-B
Thu 08:44:10 PM 25.7890 -80.2880 42° Northeast 27 31  Level FlightAware ADS-B
Thu 08:44:57 PM 25.7910 -80.2870 24° Northeast 15 17  Level FlightAware ADS-B
Thu 08:45:27 PM 25.7920 -80.2860 42° Northeast 16 18  Level FlightAware ADS-B
Thu 08:46:50 PM 25.7930 -80.2860 360° North 13 15  Level FlightAware ADS-B
Thu 08:47:15 PM 25.7930 -80.2850 90° East 21 24  Level FlightAware ADS-B
Thu 08:47:48 PM 25.7930 -80.2840 90° East 28 32  Level FlightAware ADS-B
Thu 08:48:16 PM 25.7940 -80.2820 61° Northeast 22 25  Level FlightAware ADS-B
Thu 08:50:00 PM 25.7833 -80.2833 77° East  Level FlightAware Approximate

Login

Don't have an account? Register now (free) for customized features, flight alerts, and more!